Time;durP1;ratioP1;P1;durP2;ratioP2;P2;SDS_P1;SDS_P2;PMS_P1;PMS_P2;Temp;Humidity;BMP_temperature;BMP_pressure;BME280_temperature;BME280_humidity;BME280_pressure;Samples;Min_cycle;Max_cycle;Signal;HPM_P1;HPM_P2
2021/06/09 00:01:37;;;;;;;;;;;20.60;56.10;;;;;;5051375;28;1166;-74
2021/06/09 00:04:02;;;;;;;;;;;20.60;56.20;;;;;;5051155;28;1707;-73
2021/06/09 00:06:28;;;;;;;;;;;20.60;56.10;;;;;;5051371;28;1099;-74
2021/06/09 00:08:53;;;;;;;;;;;20.60;56.20;;;;;;5052408;28;1052;-74
2021/06/09 00:11:19;;;;;;;;;;;20.60;56.10;;;;;;5052038;28;1099;-74
2021/06/09 00:13:44;;;;;;;;;;;20.60;56.20;;;;;;5053266;28;1898;-74
2021/06/09 00:16:14;;;;;;;;;;;20.60;56.10;;;;;;5064910;23;2312;-66
2021/06/09 00:18:40;;;;;;;;;;;20.60;56.10;;;;;;5066661;28;1465;-67
2021/06/09 00:21:05;;;;;;;;;;;20.60;56.00;;;;;;5054079;28;1573;-67
2021/06/09 00:23:31;;;;;;;;;;;20.60;56.10;;;;;;5070702;28;1686;-67
2021/06/09 00:25:59;;;;;;;;;;;20.60;56.00;;;;;;5070962;28;1395;-67
2021/06/09 00:28:25;;;;;;;;;;;20.60;56.00;;;;;;5070406;28;1396;-67
2021/06/09 00:30:50;;;;;;;;;;;20.60;55.90;;;;;;5056176;28;1428;-66
2021/06/09 00:33:16;;;;;;;;;;;20.60;55.90;;;;;;5055404;28;1910;-67
2021/06/09 00:35:41;;;;;;;;;;;20.60;55.90;;;;;;5055565;28;1341;-67
2021/06/09 00:38:07;;;;;;;;;;;20.60;55.80;;;;;;5055780;28;1657;-66
2021/06/09 00:40:32;;;;;;;;;;;20.60;55.80;;;;;;5071192;28;1350;-67
2021/06/09 00:43:02;;;;;;;;;;;20.60;55.80;;;;;;5037053;28;1388;-67
2021/06/09 00:45:27;;;;;;;;;;;20.60;55.80;;;;;;5055439;28;1654;-66
2021/06/09 00:47:52;;;;;;;;;;;20.60;55.80;;;;;;5054755;28;1619;-66
2021/06/09 00:50:18;;;;;;;;;;;20.50;55.70;;;;;;5055383;28;1735;-67
2021/06/09 00:52:43;;;;;;;;;;;20.60;55.70;;;;;;5055361;28;1894;-67
2021/06/09 00:55:09;;;;;;;;;;;20.50;55.60;;;;;;5054377;28;1419;-67
2021/06/09 00:57:34;;;;;;;;;;;20.50;55.60;;;;;;5055115;28;1655;-66
2021/06/09 01:00:00;;;;;;;;;;;20.50;55.50;;;;;;5071205;28;1674;-66
2021/06/09 01:02:26;;;;;;;;;;;20.50;55.50;;;;;;5055689;28;1370;-65
2021/06/09 01:04:52;;;;;;;;;;;20.50;55.20;;;;;;5070458;28;1408;-66
2021/06/09 01:07:17;;;;;;;;;;;20.50;55.20;;;;;;5055550;28;1330;-66
2021/06/09 01:09:43;;;;;;;;;;;20.50;55.30;;;;;;5070148;28;1636;-66
2021/06/09 01:12:08;;;;;;;;;;;20.50;55.30;;;;;;5055203;28;1948;-66
2021/06/09 01:14:34;;;;;;;;;;;20.50;55.20;;;;;;5054044;28;1364;-66
2021/06/09 01:16:59;;;;;;;;;;;20.50;55.20;;;;;;5054121;28;1357;-66
2021/06/09 01:19:24;;;;;;;;;;;20.50;55.20;;;;;;5055036;28;1366;-67
2021/06/09 01:21:50;;;;;;;;;;;20.50;55.10;;;;;;5054419;28;1428;-65
2021/06/09 01:24:15;;;;;;;;;;;20.50;55.10;;;;;;5052267;28;1668;-66
2021/06/09 01:26:41;;;;;;;;;;;20.50;55.10;;;;;;5054375;28;1385;-66
2021/06/09 01:29:06;;;;;;;;;;;20.50;55.00;;;;;;5054616;28;1178;-65
2021/06/09 01:31:32;;;;;;;;;;;20.50;55.20;;;;;;5069243;28;1957;-67
2021/06/09 01:34:04;;;;;;;;;;;20.50;55.20;;;;;;5053473;28;1147;-67
2021/06/09 01:36:30;;;;;;;;;;;20.50;55.20;;;;;;5054442;28;1748;-67
2021/06/09 01:38:55;;;;;;;;;;;20.50;55.20;;;;;;5054234;28;1357;-66
2021/06/09 01:41:22;;;;;;;;;;;20.40;55.80;;;;;;5054313;28;1372;-66
2021/06/09 01:43:47;;;;;;;;;;;20.40;55.20;;;;;;5053086;28;1619;-66
2021/06/09 01:46:17;;;;;;;;;;;20.40;55.20;;;;;;5053661;28;1431;-67
2021/06/09 01:48:43;;;;;;;;;;;20.40;55.20;;;;;;5053963;28;1365;-66
2021/06/09 01:51:08;;;;;;;;;;;20.40;55.10;;;;;;5069835;28;1055;-67
2021/06/09 01:53:33;;;;;;;;;;;20.40;55.20;;;;;;5052640;28;1902;-66
2021/06/09 01:55:59;;;;;;;;;;;20.40;55.20;;;;;;5054158;28;1380;-66
2021/06/09 01:58:25;;;;;;;;;;;20.40;55.20;;;;;;5069055;28;1262;-67
2021/06/09 02:00:51;;;;;;;;;;;20.40;55.20;;;;;;5028671;28;1093;-67
2021/06/09 02:03:16;;;;;;;;;;;20.40;55.20;;;;;;5033655;28;1095;-67
2021/06/09 02:05:42;;;;;;;;;;;20.40;55.30;;;;;;5031744;28;1285;-67
2021/06/09 02:08:08;;;;;;;;;;;20.40;55.30;;;;;;5063519;28;1298;-67
2021/06/09 02:10:33;;;;;;;;;;;20.40;55.30;;;;;;5032835;28;1243;-67
2021/06/09 02:12:59;;;;;;;;;;;20.40;55.20;;;;;;5047495;28;1902;-66
2021/06/09 02:15:25;;;;;;;;;;;20.40;55.30;;;;;;5032745;28;1227;-66
2021/06/09 02:17:57;;;;;;;;;;;20.40;55.20;;;;;;5028026;28;1343;-66
2021/06/09 02:20:32;;;;;;;;;;;20.40;55.30;;;;;;5046792;28;1196;-65
2021/06/09 02:22:57;;;;;;;;;;;20.40;55.30;;;;;;5031281;28;1177;-66
2021/06/09 02:25:22;;;;;;;;;;;20.40;55.30;;;;;;5044701;28;1318;-65
2021/06/09 02:27:48;;;;;;;;;;;20.40;55.30;;;;;;5046549;28;1307;-67
2021/06/09 02:30:13;;;;;;;;;;;20.40;55.30;;;;;;5045120;28;1286;-66
2021/06/09 02:32:42;;;;;;;;;;;20.40;55.30;;;;;;5048213;28;1956;-66
2021/06/09 02:35:12;;;;;;;;;;;20.40;55.10;;;;;;5045092;28;1385;-67
2021/06/09 02:37:38;;;;;;;;;;;20.40;55.10;;;;;;5051377;28;1191;-67
2021/06/09 02:40:07;;;;;;;;;;;20.30;55.10;;;;;;5046106;28;1231;-66
2021/06/09 02:42:33;;;;;;;;;;;20.30;55.20;;;;;;5044466;28;1125;-67
2021/06/09 02:44:58;;;;;;;;;;;20.30;55.20;;;;;;5060770;28;1312;-67
2021/06/09 02:47:24;;;;;;;;;;;20.40;55.20;;;;;;5043954;28;1267;-67
2021/06/09 02:49:49;;;;;;;;;;;20.30;55.20;;;;;;5060737;28;1290;-66
2021/06/09 02:52:25;;;;;;;;;;;20.30;55.10;;;;;;5031808;28;1963;-66
2021/06/09 02:54:52;;;;;;;;;;;20.30;55.10;;;;;;5060631;28;1329;-67
2021/06/09 02:57:20;;;;;;;;;;;20.30;55.10;;;;;;5031640;28;1286;-67
2021/06/09 02:59:49;;;;;;;;;;;20.30;55.10;;;;;;5062208;28;1313;-67
2021/06/09 03:02:18;;;;;;;;;;;20.30;55.10;;;;;;5045142;28;1157;-67
2021/06/09 03:04:50;;;;;;;;;;;20.30;55.00;;;;;;5032716;28;1387;-68
2021/06/09 03:07:50;;;;;;;;;;;20.30;55.00;;;;;;5046122;28;1189;-68
2021/06/09 03:10:20;;;;;;;;;;;20.30;55.10;;;;;;4987716;28;1253;-67
2021/06/09 03:12:50;;;;;;;;;;;20.30;55.20;;;;;;5036756;28;1969;-67
2021/06/09 03:15:20;;;;;;;;;;;20.30;55.20;;;;;;5042651;28;1308;-68
2021/06/09 03:17:54;;;;;;;;;;;20.30;55.20;;;;;;5032934;28;1239;-68
2021/06/09 03:20:39;;;;;;;;;;;20.30;55.10;;;;;;5029054;28;1332;-68
2021/06/09 03:23:15;;;;;;;;;;;20.30;55.20;;;;;;5045474;28;1204;-65
2021/06/09 03:26:06;;;;;;;;;;;20.30;55.10;;;;;;5028234;28;1292;-67
2021/06/09 03:28:33;;;;;;;;;;;20.30;55.20;;;;;;5023553;28;1292;-66
2021/06/09 03:30:59;;;;;;;;;;;20.30;55.20;;;;;;5053454;28;1106;-68
2021/06/09 03:33:27;;;;;;;;;;;20.20;55.30;;;;;;5041008;28;1910;-67
2021/06/09 03:35:53;;;;;;;;;;;20.30;55.40;;;;;;5020587;28;1202;-67
2021/06/09 03:38:31;;;;;;;;;;;20.20;55.30;;;;;;5068049;28;1173;-67
2021/06/09 03:41:04;;;;;;;;;;;20.20;55.40;;;;;;5067656;28;1071;-67
2021/06/09 03:43:31;;;;;;;;;;;20.20;55.40;;;;;;5067919;28;1094;-67
2021/06/09 03:45:56;;;;;;;;;;;20.20;55.40;;;;;;5052150;28;1192;-68
2021/06/09 03:48:23;;;;;;;;;;;20.20;55.50;;;;;;5066891;28;1110;-68
2021/06/09 03:50:49;;;;;;;;;;;20.20;55.50;;;;;;5051897;28;1245;-67
2021/06/09 03:53:14;;;;;;;;;;;20.20;55.60;;;;;;5066778;28;1953;-67
2021/06/09 03:55:39;;;;;;;;;;;20.20;55.60;;;;;;5052174;28;1257;-68
2021/06/09 03:58:07;;;;;;;;;;;20.20;55.70;;;;;;5067553;28;1122;-67
2021/06/09 04:00:33;;;;;;;;;;;20.20;55.80;;;;;;5067668;28;1138;-68
2021/06/09 04:02:58;;;;;;;;;;;20.20;55.80;;;;;;5066904;28;1189;-68
2021/06/09 04:05:24;;;;;;;;;;;20.20;55.80;;;;;;5067860;28;1220;-68
2021/06/09 04:07:49;;;;;;;;;;;20.20;55.90;;;;;;5067068;28;1087;-68
2021/06/09 04:10:15;;;;;;;;;;;20.20;55.90;;;;;;5067919;28;1078;-68
2021/06/09 04:12:40;;;;;;;;;;;20.20;56.00;;;;;;5051781;28;1961;-68
2021/06/09 04:15:09;;;;;;;;;;;20.20;56.00;;;;;;5051146;28;1361;-68
2021/06/09 04:17:34;;;;;;;;;;;20.20;56.00;;;;;;5051116;28;1075;-69
2021/06/09 04:20:00;;;;;;;;;;;20.20;56.20;;;;;;5067855;28;1185;-66
2021/06/09 04:22:25;;;;;;;;;;;20.20;56.30;;;;;;5033849;28;1353;-66
2021/06/09 04:24:51;;;;;;;;;;;20.20;56.40;;;;;;5050902;28;1351;-66
2021/06/09 04:27:23;;;;;;;;;;;20.20;56.40;;;;;;5052231;28;1178;-66
2021/06/09 04:29:49;;;;;;;;;;;20.20;56.40;;;;;;5067106;28;1075;-68
2021/06/09 04:32:14;;;;;;;;;;;20.20;56.50;;;;;;5067535;28;1965;-68
2021/06/09 04:34:49;;;;;;;;;;;20.20;56.60;;;;;;5049729;28;1276;-67
2021/06/09 04:37:16;;;;;;;;;;;20.20;56.80;;;;;;5051890;28;1190;-68
2021/06/09 04:39:41;;;;;;;;;;;20.20;56.80;;;;;;5050380;28;992;-67
2021/06/09 04:42:07;;;;;;;;;;;20.20;56.80;;;;;;5052029;28;1127;-68
2021/06/09 04:44:33;;;;;;;;;;;20.20;57.00;;;;;;5050945;28;1227;-67
2021/06/09 04:46:58;;;;;;;;;;;20.20;57.00;;;;;;5052128;28;1147;-67
2021/06/09 04:49:30;;;;;;;;;;;20.20;57.10;;;;;;5051555;28;1146;-67
2021/06/09 04:51:56;;;;;;;;;;;20.20;57.30;;;;;;5051173;28;1879;-67
2021/06/09 04:54:22;;;;;;;;;;;20.20;57.40;;;;;;5066355;28;1282;-68
2021/06/09 04:56:47;;;;;;;;;;;20.20;57.40;;;;;;5051744;28;1100;-66
2021/06/09 04:59:13;;;;;;;;;;;20.20;57.40;;;;;;5053953;28;1064;-66
2021/06/09 05:01:38;;;;;;;;;;;20.20;57.50;;;;;;5055460;28;1108;-66
2021/06/09 05:04:03;;;;;;;;;;;20.20;57.40;;;;;;5069866;28;1176;-66
2021/06/09 05:06:29;;;;;;;;;;;20.20;57.40;;;;;;5055044;28;1393;-66
2021/06/09 05:08:54;;;;;;;;;;;20.20;57.50;;;;;;5055194;28;1107;-65
2021/06/09 05:11:21;;;;;;;;;;;20.20;57.60;;;;;;5070618;28;1106;-66
2021/06/09 05:13:47;;;;;;;;;;;20.20;57.60;;;;;;5069477;28;1894;-66
2021/06/09 05:16:18;;;;;;;;;;;20.20;57.60;;;;;;5053576;28;1441;-67
2021/06/09 05:18:45;;;;;;;;;;;20.20;57.60;;;;;;5037533;28;989;-68
2021/06/09 05:21:10;;;;;;;;;;;20.20;57.70;;;;;;5070427;28;1102;-68
2021/06/09 05:23:39;;;;;;;;;;;20.20;57.70;;;;;;5069405;28;1122;-68
2021/06/09 05:26:05;;;;;;;;;;;20.20;57.70;;;;;;5069695;28;1243;-67
2021/06/09 05:28:32;;;;;;;;;;;20.20;57.70;;;;;;5069980;28;1596;-68
2021/06/09 05:30:57;;;;;;;;;;;20.20;57.70;;;;;;5070107;28;1138;-66
2021/06/09 05:33:23;;;;;;;;;;;20.20;57.70;;;;;;5054426;28;1906;-67
2021/06/09 05:35:51;;;;;;;;;;;20.20;57.70;;;;;;5070229;28;1796;-67
2021/06/09 05:38:17;;;;;;;;;;;20.20;57.80;;;;;;5069946;28;1071;-67
2021/06/09 05:40:43;;;;;;;;;;;20.20;57.80;;;;;;5069532;28;1312;-67
2021/06/09 05:43:08;;;;;;;;;;;20.20;57.80;;;;;;5069505;28;1055;-67
2021/06/09 05:45:34;;;;;;;;;;;20.20;57.80;;;;;;5069971;28;1295;-67
2021/06/09 05:47:59;;;;;;;;;;;20.20;57.90;;;;;;5054856;28;1087;-67
2021/06/09 05:50:25;;;;;;;;;;;20.20;57.90;;;;;;5054494;28;1159;-67
2021/06/09 05:52:51;;;;;;;;;;;20.20;58.00;;;;;;5053670;28;1923;-67
2021/06/09 05:55:18;;;;;;;;;;;20.20;58.00;;;;;;5069527;28;1234;-68
2021/06/09 05:57:44;;;;;;;;;;;20.20;58.10;;;;;;5069530;28;1115;-67
2021/06/09 06:00:09;;;;;;;;;;;20.20;58.00;;;;;;5054368;28;1215;-67
2021/06/09 06:02:36;;;;;;;;;;;20.20;58.00;;;;;;5069575;28;1078;-67
2021/06/09 06:05:02;;;;;;;;;;;20.20;58.00;;;;;;5053808;28;1345;-68
2021/06/09 06:07:27;;;;;;;;;;;20.20;58.00;;;;;;5069261;28;1066;-69
2021/06/09 06:09:53;;;;;;;;;;;20.20;57.80;;;;;;5068238;28;1165;-69
2021/06/09 06:12:18;;;;;;;;;;;20.20;60.30;;;;;;5069647;28;1901;-69
2021/06/09 06:14:44;;;;;;;;;;;20.30;61.00;;;;;;5068565;28;1294;-69
2021/06/09 06:17:09;;;;;;;;;;;20.30;61.80;;;;;;5066033;22;1965;-70
2021/06/09 06:19:35;;;;;;;;;;;20.30;62.20;;;;;;5043286;28;2100;-70
2021/06/09 06:22:00;;;;;;;;;;;20.30;62.40;;;;;;5062811;28;1751;-71
2021/06/09 06:24:26;;;;;;;;;;;20.30;62.70;;;;;;5062025;28;1391;-71
2021/06/09 06:26:51;;;;;;;;;;;20.30;62.70;;;;;;5043959;28;1541;-71
2021/06/09 06:29:17;;;;;;;;;;;20.30;62.80;;;;;;5052038;28;1696;-71
2021/06/09 06:31:42;;;;;;;;;;;20.30;62.80;;;;;;5052719;28;1977;-71
2021/06/09 06:34:08;;;;;;;;;;;20.30;62.70;;;;;;5052610;28;1465;-71
2021/06/09 06:36:33;;;;;;;;;;;20.30;62.70;;;;;;5051535;28;1672;-71
2021/06/09 06:38:59;;;;;;;;;;;20.30;63.40;;;;;;5051590;28;1716;-71
2021/06/09 06:41:25;;;;;;;;;;;20.30;62.50;;;;;;5052445;28;1155;-71
2021/06/09 06:43:51;;;;;;;;;;;20.30;62.40;;;;;;5050863;28;1679;-71
2021/06/09 06:46:17;;;;;;;;;;;20.30;62.00;;;;;;5053097;28;1403;-70
2021/06/09 06:48:42;;;;;;;;;;;20.40;62.50;;;;;;5052402;28;1179;-71
2021/06/09 06:51:08;;;;;;;;;;;20.40;62.40;;;;;;5051890;28;1390;-72
2021/06/09 06:53:34;;;;;;;;;;;20.40;62.50;;;;;;5051385;28;1959;-72
2021/06/09 06:56:00;;;;;;;;;;;20.30;62.40;;;;;;5035107;28;1452;-72
2021/06/09 06:58:26;;;;;;;;;;;20.30;62.30;;;;;;5052349;28;1268;-74
2021/06/09 07:00:51;;;;;;;;;;;20.40;62.00;;;;;;5036399;28;1403;-73
2021/06/09 07:03:17;;;;;;;;;;;20.40;62.10;;;;;;5032586;28;1292;-73
2021/06/09 07:05:42;;;;;;;;;;;20.40;62.20;;;;;;5043476;28;1370;-73
2021/06/09 07:08:07;;;;;;;;;;;20.40;62.20;;;;;;5052500;28;1033;-73
2021/06/09 07:10:33;;;;;;;;;;;20.40;62.00;;;;;;5052289;28;1005;-72
2021/06/09 07:13:01;;;;;;;;;;;20.40;62.00;;;;;;5051720;28;1894;-73
2021/06/09 07:15:27;;;;;;;;;;;20.40;61.80;;;;;;5051763;28;1491;-72
2021/06/09 07:17:53;;;;;;;;;;;20.40;62.30;;;;;;5052021;28;1016;-73
2021/06/09 07:20:19;;;;;;;;;;;20.40;62.30;;;;;;5052137;28;898;-73
2021/06/09 07:22:45;;;;;;;;;;;20.40;62.10;;;;;;5051396;28;820;-73
2021/06/09 07:25:10;;;;;;;;;;;20.40;62.10;;;;;;5053044;28;1367;-75
2021/06/09 07:27:36;;;;;;;;;;;20.40;62.40;;;;;;5051325;28;1430;-73
2021/06/09 07:30:08;;;;;;;;;;;20.40;62.40;;;;;;5051829;28;1665;-72
2021/06/09 07:32:34;;;;;;;;;;;20.40;62.40;;;;;;5051248;28;1967;-73
2021/06/09 07:35:03;;;;;;;;;;;20.40;62.50;;;;;;5051098;28;1356;-74
2021/06/09 07:37:28;;;;;;;;;;;20.40;62.40;;;;;;5052327;28;1292;-73
2021/06/09 07:39:55;;;;;;;;;;;20.40;62.40;;;;;;5051300;28;1672;-73
2021/06/09 07:42:20;;;;;;;;;;;20.40;62.70;;;;;;5051360;28;1209;-74
2021/06/09 07:45:05;;;;;;;;;;;20.40;62.50;;;;;;5030770;28;1392;-73
2021/06/09 07:47:31;;;;;;;;;;;20.40;62.70;;;;;;5041452;28;1385;-74
2021/06/09 07:49:56;;;;;;;;;;;20.40;62.70;;;;;;5051178;28;1381;-74
2021/06/09 07:52:22;;;;;;;;;;;20.40;62.70;;;;;;5051362;28;1906;-74
2021/06/09 07:54:47;;;;;;;;;;;20.40;62.70;;;;;;5052388;28;1586;-73
2021/06/09 07:57:13;;;;;;;;;;;20.40;62.60;;;;;;5051272;28;1387;-74
2021/06/09 07:59:38;;;;;;;;;;;20.40;62.60;;;;;;5052452;28;1405;-74
2021/06/09 08:02:04;;;;;;;;;;;20.40;62.50;;;;;;5051749;28;1625;-71
2021/06/09 08:04:29;;;;;;;;;;;20.40;62.80;;;;;;5050271;28;1700;-72
2021/06/09 08:06:55;;;;;;;;;;;20.40;62.50;;;;;;5051085;28;1404;-72
2021/06/09 08:09:20;;;;;;;;;;;20.40;62.40;;;;;;5052927;28;1644;-74
2021/06/09 08:11:45;;;;;;;;;;;20.40;62.50;;;;;;5051429;28;1898;-74
2021/06/09 08:14:14;;;;;;;;;;;20.40;62.40;;;;;;5050499;28;1614;-73
2021/06/09 08:16:39;;;;;;;;;;;20.40;62.30;;;;;;5052313;28;1234;-73
2021/06/09 08:19:05;;;;;;;;;;;20.40;62.30;;;;;;5050961;28;1755;-73
2021/06/09 08:21:30;;;;;;;;;;;20.40;62.20;;;;;;5051369;28;1514;-71
2021/06/09 08:23:56;;;;;;;;;;;20.40;62.30;;;;;;5050664;28;1036;-72
2021/06/09 08:26:23;;;;;;;;;;;20.40;62.20;;;;;;5052639;28;1457;-72
2021/06/09 08:28:49;;;;;;;;;;;20.40;62.20;;;;;;5052478;28;835;-72
2021/06/09 08:31:16;;;;;;;;;;;20.40;62.10;;;;;;5052639;28;1020;-73
2021/06/09 08:33:42;;;;;;;;;;;20.40;62.20;;;;;;5053540;28;1960;-72
2021/06/09 08:36:07;;;;;;;;;;;20.40;62.20;;;;;;5056741;28;1196;-73
2021/06/09 08:38:33;;;;;;;;;;;20.40;62.30;;;;;;5055230;28;1373;-73
2021/06/09 08:40:58;;;;;;;;;;;20.40;62.10;;;;;;5038527;28;1184;-72
2021/06/09 08:43:24;;;;;;;;;;;20.40;62.10;;;;;;5054186;28;952;-73
2021/06/09 08:45:49;;;;;;;;;;;20.40;62.30;;;;;;5054852;28;1263;-73
2021/06/09 08:48:15;;;;;;;;;;;20.40;62.10;;;;;;5056296;28;911;-73
2021/06/09 08:50:41;;;;;;;;;;;20.40;62.10;;;;;;5044630;28;1921;-70
2021/06/09 08:53:06;;;;;;;;;;;20.40;62.20;;;;;;5053588;28;1894;-70
2021/06/09 08:55:32;;;;;;;;;;;20.40;62.20;;;;;;5053573;28;1618;-71
2021/06/09 08:57:58;;;;;;;;;;;20.40;62.40;;;;;;5054780;28;1655;-68
2021/06/09 09:00:23;;;;;;;;;;;20.40;62.50;;;;;;5054897;28;1362;-70
2021/06/09 09:02:51;;;;;;;;;;;20.40;62.50;;;;;;5054197;28;1620;-69
2021/06/09 09:05:16;;;;;;;;;;;20.40;62.60;;;;;;5054325;28;1270;-70
2021/06/09 09:07:42;;;;;;;;;;;20.40;62.50;;;;;;5053191;28;1631;-69
2021/06/09 09:10:08;;;;;;;;;;;20.40;62.50;;;;;;5053561;28;1665;-69
2021/06/09 09:12:35;;;;;;;;;;;20.40;62.50;;;;;;5053283;28;1957;-69
2021/06/09 09:15:00;;;;;;;;;;;20.40;62.60;;;;;;5054017;28;1659;-69
2021/06/09 09:17:25;;;;;;;;;;;20.40;62.60;;;;;;5054551;28;1382;-73
2021/06/09 09:19:51;;;;;;;;;;;20.40;62.70;;;;;;5053974;28;1401;-72
2021/06/09 09:22:31;;;;;;;;;;;20.40;62.60;;;;;;5053553;28;1408;-73
2021/06/09 09:24:56;;;;;;;;;;;20.40;62.90;;;;;;5054462;28;1437;-72
2021/06/09 09:27:31;;;;;;;;;;;20.40;62.80;;;;;;5054342;28;1685;-72
2021/06/09 09:30:00;;;;;;;;;;;20.40;62.80;;;;;;5053961;28;1636;-71
2021/06/09 09:32:26;;;;;;;;;;;20.40;62.90;;;;;;5037300;28;1918;-70
2021/06/09 09:34:51;;;;;;;;;;;20.40;62.90;;;;;;5053277;28;1356;-71
2021/06/09 09:37:20;;;;;;;;;;;20.40;62.90;;;;;;5054102;28;1376;-72
2021/06/09 09:39:48;;;;;;;;;;;20.40;62.80;;;;;;5053340;28;1435;-71
2021/06/09 09:42:34;;;;;;;;;;;20.40;62.90;;;;;;5053422;28;1625;-73
2021/06/09 09:45:12;;;;;;;;;;;20.40;62.90;;;;;;5051305;28;1821;-73
2021/06/09 09:47:38;;;;;;;;;;;20.40;63.00;;;;;;5054447;28;984;-73
2021/06/09 09:50:04;;;;;;;;;;;20.40;62.90;;;;;;5050213;28;997;-72
2021/06/09 09:52:29;;;;;;;;;;;20.40;63.00;;;;;;5051916;28;1953;-72
2021/06/09 09:54:58;;;;;;;;;;;20.40;63.00;;;;;;5046032;28;1433;-72
2021/06/09 09:57:24;;;;;;;;;;;20.40;62.70;;;;;;5054722;28;1641;-72
2021/06/09 09:59:55;;;;;;;;;;;20.40;62.70;;;;;;5053205;28;1552;-72
2021/06/09 10:02:21;;;;;;;;;;;20.40;62.50;;;;;;5054853;28;1599;-72
2021/06/09 10:04:52;;;;;;;;;;;20.40;62.20;;;;;;5054210;28;1095;-72
2021/06/09 10:07:17;;;;;;;;;;;20.40;61.90;;;;;;5052916;28;1702;-72
2021/06/09 10:09:44;;;;;;;;;;;20.40;61.60;;;;;;5054761;28;1688;-72
2021/06/09 10:12:09;;;;;;;;;;;20.40;61.60;;;;;;5054387;28;1956;-71
2021/06/09 10:14:41;;;;;;;;;;;20.40;61.40;;;;;;5054185;28;1408;-75
2021/06/09 10:17:08;;;;;;;;;;;20.40;61.30;;;;;;5049856;28;2314;-75
2021/06/09 10:19:35;;;;;;;;;;;20.40;61.70;;;;;;5054796;28;1219;-75
2021/06/09 10:22:10;;;;;;;;;;;20.40;61.80;;;;;;5051587;28;2037;-74
2021/06/09 10:24:44;;;;;;;;;;;20.40;61.70;;;;;;5052930;28;1514;-75
2021/06/09 10:27:10;;;;;;;;;;;20.40;61.50;;;;;;5053644;28;1673;-74
2021/06/09 10:29:35;;;;;;;;;;;20.50;62.00;;;;;;5050810;28;1496;-74
2021/06/09 10:32:02;;;;;;;;;;;20.50;62.30;;;;;;5053916;28;1963;-74
2021/06/09 10:34:29;;;;;;;;;;;20.50;62.50;;;;;;5051247;28;2040;-73
2021/06/09 10:36:55;;;;;;;;;;;20.50;62.30;;;;;;5052175;28;1312;-73
2021/06/09 10:39:21;;;;;;;;;;;20.50;62.20;;;;;;5053605;28;1674;-74
2021/06/09 10:41:48;;;;;;;;;;;20.50;62.00;;;;;;5053843;28;1456;-73
2021/06/09 10:44:14;;;;;;;;;;;20.50;61.30;;;;;;5053400;28;1742;-73
2021/06/09 10:46:42;;;;;;;;;;;20.50;60.90;;;;;;5056107;28;1414;-73
2021/06/09 10:49:07;;;;;;;;;;;20.50;61.20;;;;;;5060528;28;1492;-74
2021/06/09 10:51:33;;;;;;;;;;;20.50;60.90;;;;;;5055411;28;1615;-74
2021/06/09 10:54:00;;;;;;;;;;;20.50;60.90;;;;;;5052982;28;1963;-74
2021/06/09 10:56:25;;;;;;;;;;;20.50;61.00;;;;;;5053293;28;1503;-74
2021/06/09 10:58:51;;;;;;;;;;;20.50;61.10;;;;;;5052216;28;1575;-73
2021/06/09 11:01:19;;;;;;;;;;;20.50;61.20;;;;;;5052928;28;1366;-74
2021/06/09 11:03:45;;;;;;;;;;;20.50;61.30;;;;;;5051558;28;1383;-73
2021/06/09 11:06:11;;;;;;;;;;;20.50;61.30;;;;;;5052087;28;1533;-74
2021/06/09 11:08:37;;;;;;;;;;;20.50;61.30;;;;;;5053239;28;807;-74
2021/06/09 11:11:02;;;;;;;;;;;20.50;61.60;;;;;;5052995;28;1367;-73
2021/06/09 11:13:28;;;;;;;;;;;20.50;61.60;;;;;;5051056;28;1898;-72
2021/06/09 11:16:06;;;;;;;;;;;20.50;61.70;;;;;;5052923;28;1459;-74
2021/06/09 11:18:36;;;;;;;;;;;20.50;62.10;;;;;;5052192;28;1369;-73
2021/06/09 11:21:02;;;;;;;;;;;20.50;62.30;;;;;;5053030;28;1221;-74
2021/06/09 11:23:35;;;;;;;;;;;20.50;62.30;;;;;;5034358;28;1386;-74
2021/06/09 11:26:03;;;;;;;;;;;20.50;62.20;;;;;;5051861;28;1445;-74
2021/06/09 11:28:31;;;;;;;;;;;20.50;62.40;;;;;;5051744;28;1393;-73
2021/06/09 11:31:00;;;;;;;;;;;20.50;62.80;;;;;;5053087;28;1214;-73
2021/06/09 11:33:33;;;;;;;;;;;20.50;62.70;;;;;;5050994;28;1902;-74
2021/06/09 11:35:59;;;;;;;;;;;20.50;62.40;;;;;;5040456;28;1631;-73
2021/06/09 11:38:28;;;;;;;;;;;20.50;62.50;;;;;;5052532;28;1415;-72
2021/06/09 11:40:57;;;;;;;;;;;20.50;62.50;;;;;;5051959;28;1356;-73
2021/06/09 11:43:23;;;;;;;;;;;20.50;62.50;;;;;;5051688;28;1155;-72
2021/06/09 11:45:52;;;;;;;;;;;20.50;62.50;;;;;;5052628;28;1377;-73
2021/06/09 11:48:20;;;;;;;;;;;20.50;62.40;;;;;;5052616;28;1470;-73
2021/06/09 11:50:45;;;;;;;;;;;20.50;62.30;;;;;;5051843;28;1382;-71
2021/06/09 11:53:19;;;;;;;;;;;20.50;62.20;;;;;;5044644;28;1953;-70
2021/06/09 11:55:45;;;;;;;;;;;20.50;62.90;;;;;;5059259;28;1861;-70
2021/06/09 11:58:11;;;;;;;;;;;20.50;62.10;;;;;;5050581;28;1372;-70
2021/06/09 12:00:55;;;;;;;;;;;20.50;62.30;;;;;;5050737;28;1383;-70
2021/06/09 12:03:21;;;;;;;;;;;20.50;62.20;;;;;;5050435;28;1261;-71
2021/06/09 12:05:47;;;;;;;;;;;20.50;62.20;;;;;;5055938;28;2070;-70
2021/06/09 12:08:12;;;;;;;;;;;20.50;62.20;;;;;;5061071;28;1105;-69
2021/06/09 12:10:38;;;;;;;;;;;20.60;62.20;;;;;;5050693;28;2246;-70
2021/06/09 12:13:03;;;;;;;;;;;20.50;62.20;;;;;;5050484;28;1949;-71
2021/06/09 12:15:29;;;;;;;;;;;20.50;62.30;;;;;;5049863;28;2028;-72
2021/06/09 12:17:54;;;;;;;;;;;20.50;62.40;;;;;;5052059;28;1616;-72
2021/06/09 12:20:20;;;;;;;;;;;20.50;62.10;;;;;;5051916;28;1300;-71
2021/06/09 12:22:46;;;;;;;;;;;20.50;62.00;;;;;;5044248;28;1667;-73
2021/06/09 12:25:19;;;;;;;;;;;20.50;61.80;;;;;;5049795;28;1565;-71
2021/06/09 12:27:59;;;;;;;;;;;20.50;61.80;;;;;;5051725;28;1173;-72
2021/06/09 12:30:25;;;;;;;;;;;20.50;61.70;;;;;;5052254;28;1325;-72
2021/06/09 12:32:50;;;;;;;;;;;20.50;61.60;;;;;;5050393;28;1918;-70
2021/06/09 12:35:16;;;;;;;;;;;20.50;61.50;;;;;;5051364;28;1278;-72
2021/06/09 12:37:46;;;;;;;;;;;20.50;61.70;;;;;;5051188;28;1459;-73
2021/06/09 12:40:19;;;;;;;;;;;20.50;61.80;;;;;;5050083;28;1139;-72
2021/06/09 12:42:48;;;;;;;;;;;20.50;61.60;;;;;;5052413;28;823;-73
2021/06/09 12:45:13;;;;;;;;;;;20.50;61.40;;;;;;5050267;28;1263;-72
2021/06/09 12:47:40;;;;;;;;;;;20.50;61.30;;;;;;5049857;28;1303;-71
2021/06/09 12:50:24;;;;;;;;;;;20.50;61.10;;;;;;5043951;28;1330;-71
2021/06/09 12:52:53;;;;;;;;;;;20.50;61.00;;;;;;5043638;28;1906;-72
2021/06/09 12:55:28;;;;;;;;;;;20.50;61.10;;;;;;5031679;28;1378;-73
2021/06/09 12:57:54;;;;;;;;;;;20.50;61.20;;;;;;5025468;28;1536;-74
2021/06/09 13:00:21;;;;;;;;;;;20.50;61.10;;;;;;5042791;28;1389;-71
2021/06/09 13:02:46;;;;;;;;;;;20.50;61.20;;;;;;5050932;28;1354;-75
2021/06/09 13:05:15;;;;;;;;;;;20.50;61.20;;;;;;5050824;28;1609;-72
2021/06/09 13:07:41;;;;;;;;;;;20.50;61.20;;;;;;5050335;28;1177;-70
2021/06/09 13:10:07;;;;;;;;;;;20.50;61.00;;;;;;5048570;28;1106;-73
2021/06/09 13:12:32;;;;;;;;;;;20.50;61.10;;;;;;5069156;22;1905;-65
2021/06/09 13:14:58;;;;;;;;;;;20.50;61.20;;;;;;5042009;28;1063;-65
2021/06/09 13:17:23;;;;;;;;;;;20.50;61.00;;;;;;5050519;28;1110;-66
2021/06/09 13:19:48;;;;;;;;;;;20.50;61.10;;;;;;5050877;28;1087;-65
2021/06/09 13:22:17;;;;;;;;;;;20.50;61.20;;;;;;5048293;28;1279;-65
2021/06/09 13:24:43;;;;;;;;;;;20.50;61.20;;;;;;5055245;28;1032;-65
2021/06/09 13:27:12;;;;;;;;;;;20.50;61.20;;;;;;5050205;28;1574;-67
2021/06/09 13:29:53;;;;;;;;;;;20.50;61.00;;;;;;5053600;28;1040;-65
2021/06/09 13:32:25;;;;;;;;;;;20.50;61.10;;;;;;5053537;28;1972;-66
2021/06/09 13:34:52;;;;;;;;;;;20.50;61.00;;;;;;5049462;28;1652;-65
2021/06/09 13:37:18;;;;;;;;;;;20.50;61.00;;;;;;5037222;28;1537;-66
2021/06/09 13:39:44;;;;;;;;;;;20.50;60.90;;;;;;5053723;28;1197;-67
2021/06/09 13:42:10;;;;;;;;;;;20.50;61.00;;;;;;5054828;28;1379;-65
2021/06/09 13:44:39;;;;;;;;;;;20.50;61.40;;;;;;5054498;28;1061;-65
2021/06/09 13:47:04;;;;;;;;;;;20.50;61.60;;;;;;5054876;28;1123;-67
2021/06/09 13:49:37;;;;;;;;;;;20.50;61.50;;;;;;5053621;28;1068;-65
2021/06/09 13:52:06;;;;;;;;;;;20.50;61.10;;;;;;5054700;28;1902;-63
2021/06/09 13:54:35;;;;;;;;;;;20.50;61.20;;;;;;5054433;28;1115;-65
2021/06/09 13:57:11;;;;;;;;;;;20.50;61.20;;;;;;5054737;28;1059;-65
2021/06/09 13:59:42;;;;;;;;;;;20.50;60.90;;;;;;5053588;28;1119;-65
2021/06/09 14:02:14;;;;;;;;;;;20.50;61.10;;;;;;5053166;28;1299;-64
2021/06/09 14:04:40;;;;;;;;;;;20.50;61.00;;;;;;5054422;28;1071;-66
2021/06/09 14:07:07;;;;;;;;;;;20.50;60.90;;;;;;5055157;28;1263;-65
2021/06/09 14:09:33;;;;;;;;;;;20.50;60.90;;;;;;5053885;28;1290;-66
2021/06/09 14:11:59;;;;;;;;;;;20.50;61.00;;;;;;5052160;28;2217;-65
2021/06/09 14:14:25;;;;;;;;;;;20.50;61.00;;;;;;5061117;28;1297;-65
2021/06/09 14:17:10;;;;;;;;;;;20.50;61.00;;;;;;5061848;28;1134;-65
2021/06/09 14:19:36;;;;;;;;;;;20.50;60.90;;;;;;5054029;28;1111;-66
2021/06/09 14:22:02;;;;;;;;;;;20.50;60.90;;;;;;5048316;28;1298;-66
2021/06/09 14:24:27;;;;;;;;;;;20.50;61.00;;;;;;5052541;28;1115;-65
2021/06/09 14:26:54;;;;;;;;;;;20.50;60.90;;;;;;5054274;28;1082;-65
2021/06/09 14:29:20;;;;;;;;;;;20.50;61.10;;;;;;5053938;28;1126;-67
2021/06/09 14:31:45;;;;;;;;;;;20.50;61.10;;;;;;5053566;28;1298;-65